sensor_id;sensor_type;location;lat;lon;timestamp;pressure;altitude;pressure_sealevel;temperature;humidity
80837;BME280;70251;60.008;30.404;2024-01-10T00:02:06;101173.34;;;3.07;75.54
80837;BME280;70251;60.008;30.404;2024-01-10T00:04:31;101184.22;;;3.01;75.43
80837;BME280;70251;60.008;30.404;2024-01-10T00:06:57;101183.66;;;2.94;75.40
80837;BME280;70251;60.008;30.404;2024-01-10T00:09:23;101187.16;;;2.95;75.28
80837;BME280;70251;60.008;30.404;2024-01-10T00:11:48;101189.00;;;2.93;75.31
80837;BME280;70251;60.008;30.404;2024-01-10T00:14:14;101198.53;;;2.95;75.63
80837;BME280;70251;60.008;30.404;2024-01-10T00:16:39;101202.97;;;2.95;75.46
80837;BME280;70251;60.008;30.404;2024-01-10T00:19:05;101204.69;;;2.96;75.53
80837;BME280;70251;60.008;30.404;2024-01-10T00:21:31;101212.59;;;2.96;75.67
80837;BME280;70251;60.008;30.404;2024-01-10T00:23:57;101216.22;;;2.93;75.54
80837;BME280;70251;60.008;30.404;2024-01-10T00:26:23;101211.00;;;2.92;75.86
80837;BME280;70251;60.008;30.404;2024-01-10T00:28:48;101214.88;;;2.85;75.26
80837;BME280;70251;60.008;30.404;2024-01-10T00:31:14;101222.22;;;2.78;75.18
80837;BME280;70251;60.008;30.404;2024-01-10T00:33:40;101215.59;;;2.70;75.18
80837;BME280;70251;60.008;30.404;2024-01-10T00:36:06;101234.13;;;2.68;75.45
80837;BME280;70251;60.008;30.404;2024-01-10T00:38:32;101236.03;;;2.65;75.60
80837;BME280;70251;60.008;30.404;2024-01-10T00:40:58;101233.56;;;2.62;75.39
80837;BME280;70251;60.008;30.404;2024-01-10T00:43:24;101231.84;;;2.61;74.49
80837;BME280;70251;60.008;30.404;2024-01-10T00:45:50;101236.53;;;2.54;75.05
80837;BME280;70251;60.008;30.404;2024-01-10T00:48:16;101244.63;;;2.50;75.28
80837;BME280;70251;60.008;30.404;2024-01-10T00:50:43;101251.97;;;2.43;74.82
80837;BME280;70251;60.008;30.404;2024-01-10T00:53:10;101258.88;;;2.46;74.74
80837;BME280;70251;60.008;30.404;2024-01-10T00:55:35;101259.03;;;2.43;74.93
80837;BME280;70251;60.008;30.404;2024-01-10T00:58:01;101264.50;;;2.38;75.36
80837;BME280;70251;60.008;30.404;2024-01-10T01:00:27;101246.19;;;2.35;74.93
80837;BME280;70251;60.008;30.404;2024-01-10T01:02:53;101250.59;;;2.34;75.14
80837;BME280;70251;60.008;30.404;2024-01-10T01:05:18;101262.06;;;2.33;74.87
80837;BME280;70251;60.008;30.404;2024-01-10T01:07:44;101251.63;;;2.32;75.10
80837;BME280;70251;60.008;30.404;2024-01-10T01:10:10;101253.19;;;2.36;74.57
80837;BME280;70251;60.008;30.404;2024-01-10T01:12:35;101250.59;;;2.34;74.58
80837;BME280;70251;60.008;30.404;2024-01-10T01:15:01;101253.50;;;2.28;74.29
80837;BME280;70251;60.008;30.404;2024-01-10T01:17:27;101263.41;;;2.23;74.57
80837;BME280;70251;60.008;30.404;2024-01-10T01:19:53;101256.81;;;2.13;74.40
80837;BME280;70251;60.008;30.404;2024-01-10T01:22:18;101259.81;;;2.06;74.32
80837;BME280;70251;60.008;30.404;2024-01-10T01:24:44;101266.19;;;2.00;74.35
80837;BME280;70251;60.008;30.404;2024-01-10T01:27:10;101267.22;;;1.96;74.32
80837;BME280;70251;60.008;30.404;2024-01-10T01:29:35;101272.69;;;1.92;74.20
80837;BME280;70251;60.008;30.404;2024-01-10T01:32:01;101272.66;;;1.93;74.14
80837;BME280;70251;60.008;30.404;2024-01-10T01:34:26;101273.25;;;2.00;74.51
80837;BME280;70251;60.008;30.404;2024-01-10T01:36:52;101276.31;;;2.09;74.49
80837;BME280;70251;60.008;30.404;2024-01-10T01:39:18;101272.69;;;2.12;74.50
80837;BME280;70251;60.008;30.404;2024-01-10T01:41:47;101275.31;;;2.12;74.24
80837;BME280;70251;60.008;30.404;2024-01-10T01:44:13;101282.69;;;2.04;74.32
80837;BME280;70251;60.008;30.404;2024-01-10T01:46:41;101283.81;;;1.98;74.21
80837;BME280;70251;60.008;30.404;2024-01-10T01:49:06;101283.97;;;1.95;74.17
80837;BME280;70251;60.008;30.404;2024-01-10T01:51:34;101291.94;;;1.94;74.19
80837;BME280;70251;60.008;30.404;2024-01-10T01:54:05;101281.41;;;1.94;74.08
80837;BME280;70251;60.008;30.404;2024-01-10T01:56:32;101284.16;;;1.91;74.02
80837;BME280;70251;60.008;30.404;2024-01-10T01:58:58;101288.69;;;1.87;73.69
80837;BME280;70251;60.008;30.404;2024-01-10T02:01:24;101293.28;;;1.82;73.95
80837;BME280;70251;60.008;30.404;2024-01-10T02:03:49;101309.97;;;1.81;73.84
80837;BME280;70251;60.008;30.404;2024-01-10T02:06:15;101305.91;;;1.74;73.85
80837;BME280;70251;60.008;30.404;2024-01-10T02:08:40;101310.56;;;1.68;73.67
80837;BME280;70251;60.008;30.404;2024-01-10T02:11:06;101308.13;;;1.63;74.05
80837;BME280;70251;60.008;30.404;2024-01-10T02:13:32;101317.94;;;1.60;73.96
80837;BME280;70251;60.008;30.404;2024-01-10T02:15:59;101321.47;;;1.58;73.41
80837;BME280;70251;60.008;30.404;2024-01-10T02:18:25;101318.22;;;1.52;73.49
80837;BME280;70251;60.008;30.404;2024-01-10T02:20:51;101325.41;;;1.48;73.57
80837;BME280;70251;60.008;30.404;2024-01-10T02:23:19;101324.78;;;1.42;73.72
80837;BME280;70251;60.008;30.404;2024-01-10T02:25:44;101331.34;;;1.32;73.07
80837;BME280;70251;60.008;30.404;2024-01-10T02:28:10;101327.53;;;1.17;73.01
80837;BME280;70251;60.008;30.404;2024-01-10T02:30:37;101331.38;;;1.09;73.44
80837;BME280;70251;60.008;30.404;2024-01-10T02:33:03;101334.06;;;1.07;73.08
80837;BME280;70251;60.008;30.404;2024-01-10T02:35:29;101337.91;;;0.99;73.19
80837;BME280;70251;60.008;30.404;2024-01-10T02:37:58;101341.38;;;0.99;73.58
80837;BME280;70251;60.008;30.404;2024-01-10T02:40:24;101343.38;;;0.93;73.15
80837;BME280;70251;60.008;30.404;2024-01-10T02:42:50;101333.13;;;0.87;73.59
80837;BME280;70251;60.008;30.404;2024-01-10T02:45:17;101333.19;;;0.85;73.10
80837;BME280;70251;60.008;30.404;2024-01-10T02:47:43;101337.41;;;0.89;73.43
80837;BME280;70251;60.008;30.404;2024-01-10T02:50:09;101330.56;;;0.85;73.40
80837;BME280;70251;60.008;30.404;2024-01-10T02:52:34;101339.34;;;0.84;73.14
80837;BME280;70251;60.008;30.404;2024-01-10T02:55:00;101332.41;;;0.83;73.44
80837;BME280;70251;60.008;30.404;2024-01-10T02:57:26;101333.19;;;0.85;73.21
80837;BME280;70251;60.008;30.404;2024-01-10T02:59:51;101328.84;;;0.84;73.20
80837;BME280;70251;60.008;30.404;2024-01-10T03:02:17;101336.88;;;0.79;72.79
80837;BME280;70251;60.008;30.404;2024-01-10T03:04:43;101336.22;;;0.74;72.83
80837;BME280;70251;60.008;30.404;2024-01-10T03:07:10;101335.41;;;0.72;73.02
80837;BME280;70251;60.008;30.404;2024-01-10T03:09:35;101333.59;;;0.74;72.70
80837;BME280;70251;60.008;30.404;2024-01-10T03:12:01;101333.63;;;0.73;72.82
80837;BME280;70251;60.008;30.404;2024-01-10T03:14:27;101326.78;;;0.69;72.59
80837;BME280;70251;60.008;30.404;2024-01-10T03:16:52;101330.34;;;0.68;72.43
80837;BME280;70251;60.008;30.404;2024-01-10T03:19:19;101325.94;;;0.68;72.53
80837;BME280;70251;60.008;30.404;2024-01-10T03:21:44;101338.31;;;0.65;72.25
80837;BME280;70251;60.008;30.404;2024-01-10T03:24:10;101341.91;;;0.62;72.21
80837;BME280;70251;60.008;30.404;2024-01-10T03:26:36;101340.94;;;0.65;72.24
80837;BME280;70251;60.008;30.404;2024-01-10T03:29:01;101337.44;;;0.66;72.43
80837;BME280;70251;60.008;30.404;2024-01-10T03:31:29;101354.31;;;0.59;71.71
80837;BME280;70251;60.008;30.404;2024-01-10T03:33:58;101358.91;;;0.52;72.11
80837;BME280;70251;60.008;30.404;2024-01-10T03:36:24;101359.81;;;0.51;71.79
80837;BME280;70251;60.008;30.404;2024-01-10T03:38:50;101366.09;;;0.47;71.78
80837;BME280;70251;60.008;30.404;2024-01-10T03:41:20;101387.25;;;0.43;72.00
80837;BME280;70251;60.008;30.404;2024-01-10T03:43:46;101382.13;;;0.40;71.78
80837;BME280;70251;60.008;30.404;2024-01-10T03:46:12;101382.22;;;0.37;72.30
80837;BME280;70251;60.008;30.404;2024-01-10T03:48:38;101389.44;;;0.30;71.98
80837;BME280;70251;60.008;30.404;2024-01-10T03:51:13;101396.63;;;0.25;71.51
80837;BME280;70251;60.008;30.404;2024-01-10T03:53:39;101395.72;;;0.26;72.27
80837;BME280;70251;60.008;30.404;2024-01-10T03:56:05;101396.72;;;0.22;71.93
80837;BME280;70251;60.008;30.404;2024-01-10T03:58:31;101401.09;;;0.23;71.50
80837;BME280;70251;60.008;30.404;2024-01-10T04:00:56;101404.53;;;0.24;71.78
80837;BME280;70251;60.008;30.404;2024-01-10T04:03:22;101399.25;;;0.25;72.34
80837;BME280;70251;60.008;30.404;2024-01-10T04:05:47;101389.56;;;0.27;71.98
80837;BME280;70251;60.008;30.404;2024-01-10T04:08:13;101386.78;;;0.32;71.45
80837;BME280;70251;60.008;30.404;2024-01-10T04:10:38;101390.16;;;0.35;71.63
80837;BME280;70251;60.008;30.404;2024-01-10T04:13:04;101390.88;;;0.39;71.92
80837;BME280;70251;60.008;30.404;2024-01-10T04:15:30;101389.13;;;0.39;71.36
80837;BME280;70251;60.008;30.404;2024-01-10T04:17:55;101396.84;;;0.44;71.69
80837;BME280;70251;60.008;30.404;2024-01-10T04:20:21;101395.88;;;0.46;71.04
80837;BME280;70251;60.008;30.404;2024-01-10T04:22:47;101410.91;;;0.41;70.68
80837;BME280;70251;60.008;30.404;2024-01-10T04:25:12;101418.16;;;0.35;71.18
80837;BME280;70251;60.008;30.404;2024-01-10T04:27:38;101408.66;;;0.31;71.38
80837;BME280;70251;60.008;30.404;2024-01-10T04:30:04;101411.44;;;0.26;70.90
80837;BME280;70251;60.008;30.404;2024-01-10T04:32:31;101409.97;;;0.19;71.03
80837;BME280;70251;60.008;30.404;2024-01-10T04:34:56;101409.31;;;0.13;70.58
80837;BME280;70251;60.008;30.404;2024-01-10T04:37:22;101402.00;;;-0.04;70.83
80837;BME280;70251;60.008;30.404;2024-01-10T04:39:47;101400.72;;;-0.17;70.54
80837;BME280;70251;60.008;30.404;2024-01-10T04:42:13;101406.69;;;-0.14;71.29
80837;BME280;70251;60.008;30.404;2024-01-10T04:44:39;101403.28;;;-0.16;71.43
80837;BME280;70251;60.008;30.404;2024-01-10T04:47:06;101405.09;;;-0.18;70.88
80837;BME280;70251;60.008;30.404;2024-01-10T04:49:32;101406.03;;;-0.20;70.57
80837;BME280;70251;60.008;30.404;2024-01-10T04:51:58;101401.75;;;-0.23;71.43
80837;BME280;70251;60.008;30.404;2024-01-10T04:54:24;101403.63;;;-0.26;70.99
80837;BME280;70251;60.008;30.404;2024-01-10T04:56:49;101397.47;;;-0.25;70.58
80837;BME280;70251;60.008;30.404;2024-01-10T04:59:15;101390.41;;;-0.23;71.44
80837;BME280;70251;60.008;30.404;2024-01-10T05:01:41;101395.56;;;-0.20;70.68
80837;BME280;70251;60.008;30.404;2024-01-10T05:04:06;101408.50;;;-0.16;70.44
80837;BME280;70251;60.008;30.404;2024-01-10T05:06:32;101430.25;;;-0.12;70.56
80837;BME280;70251;60.008;30.404;2024-01-10T05:08:58;101415.31;;;-0.10;70.17
80837;BME280;70251;60.008;30.404;2024-01-10T05:11:25;101425.78;;;-0.09;70.61
80837;BME280;70251;60.008;30.404;2024-01-10T05:13:54;101425.00;;;-0.12;70.54
80837;BME280;70251;60.008;30.404;2024-01-10T05:16:20;101415.50;;;-0.16;70.57
80837;BME280;70251;60.008;30.404;2024-01-10T05:18:45;101411.22;;;-0.19;70.76
80837;BME280;70251;60.008;30.404;2024-01-10T05:21:11;101402.47;;;-0.18;69.72
80837;BME280;70251;60.008;30.404;2024-01-10T05:23:37;101404.22;;;-0.18;70.30
80837;BME280;70251;60.008;30.404;2024-01-10T05:26:05;101408.50;;;-0.16;69.90
80837;BME280;70251;60.008;30.404;2024-01-10T05:28:30;101407.75;;;-0.19;70.19
80837;BME280;70251;60.008;30.404;2024-01-10T05:30:57;101406.75;;;-0.15;70.12
80837;BME280;70251;60.008;30.404;2024-01-10T05:33:23;101406.84;;;-0.18;69.62
80837;BME280;70251;60.008;30.404;2024-01-10T05:35:48;101403.41;;;-0.20;70.28
80837;BME280;70251;60.008;30.404;2024-01-10T05:38:14;101402.63;;;-0.22;70.15
80837;BME280;70251;60.008;30.404;2024-01-10T05:40:40;101405.47;;;-0.30;69.33
80837;BME280;70251;60.008;30.404;2024-01-10T05:43:06;101400.44;;;-0.36;69.90
80837;BME280;70251;60.008;30.404;2024-01-10T05:45:32;101409.22;;;-0.37;69.87
80837;BME280;70251;60.008;30.404;2024-01-10T05:47:59;101412.69;;;-0.36;70.47
80837;BME280;70251;60.008;30.404;2024-01-10T05:50:24;101411.84;;;-0.38;69.79
80837;BME280;70251;60.008;30.404;2024-01-10T05:52:50;101401.28;;;-0.35;70.03
80837;BME280;70251;60.008;30.404;2024-01-10T05:55:16;101385.41;;;-0.31;69.55
80837;BME280;70251;60.008;30.404;2024-01-10T05:57:42;101381.38;;;-0.41;69.44
80837;BME280;70251;60.008;30.404;2024-01-10T06:00:08;101378.19;;;-0.50;69.94
80837;BME280;70251;60.008;30.404;2024-01-10T06:02:38;101375.56;;;-0.50;69.43
80837;BME280;70251;60.008;30.404;2024-01-10T06:05:10;101381.75;;;-0.53;69.38
80837;BME280;70251;60.008;30.404;2024-01-10T06:07:37;101381.75;;;-0.53;70.30
80837;BME280;70251;60.008;30.404;2024-01-10T06:10:04;101361.59;;;-0.51;69.44
80837;BME280;70251;60.008;30.404;2024-01-10T06:12:30;101360.00;;;-0.55;69.99
80837;BME280;70251;60.008;30.404;2024-01-10T06:14:55;101345.34;;;-0.60;69.11
80837;BME280;70251;60.008;30.404;2024-01-10T06:17:21;101335.00;;;-0.65;69.79
80837;BME280;70251;60.008;30.404;2024-01-10T06:19:47;101335.00;;;-0.65;69.80
80837;BME280;70251;60.008;30.404;2024-01-10T06:22:13;101332.47;;;-0.68;69.70
80837;BME280;70251;60.008;30.404;2024-01-10T06:24:38;101309.75;;;-0.67;69.17
80837;BME280;70251;60.008;30.404;2024-01-10T06:27:04;101318.53;;;-0.68;70.00
80837;BME280;70251;60.008;30.404;2024-01-10T06:29:31;101313.19;;;-0.65;69.79
80837;BME280;70251;60.008;30.404;2024-01-10T06:31:57;101321.03;;;-0.65;69.54
80837;BME280;70251;60.008;30.404;2024-01-10T06:34:24;101331.78;;;-0.73;68.87
80837;BME280;70251;60.008;30.404;2024-01-10T06:36:49;101339.66;;;-0.74;69.54
80837;BME280;70251;60.008;30.404;2024-01-10T06:39:15;101327.50;;;-0.75;69.42
80837;BME280;70251;60.008;30.404;2024-01-10T06:41:42;101315.91;;;-0.68;69.13
80837;BME280;70251;60.008;30.404;2024-01-10T06:44:08;101300.09;;;-0.65;69.56
80837;BME280;70251;60.008;30.404;2024-01-10T06:46:35;101309.75;;;-0.67;69.36
80837;BME280;70251;60.008;30.404;2024-01-10T06:49:01;101315.00;;;-0.67;69.33
80837;BME280;70251;60.008;30.404;2024-01-10T06:51:27;101330.63;;;-0.64;68.94
80837;BME280;70251;60.008;30.404;2024-01-10T06:53:53;101319.09;;;-0.59;68.99
80837;BME280;70251;60.008;30.404;2024-01-10T06:56:25;101332.84;;;-0.52;68.93
80837;BME280;70251;60.008;30.404;2024-01-10T06:58:51;101339.81;;;-0.51;69.07
80837;BME280;70251;60.008;30.404;2024-01-10T07:01:16;101338.81;;;-0.47;69.20
80837;BME280;70251;60.008;30.404;2024-01-10T07:03:42;101327.47;;;-0.48;68.62
80837;BME280;70251;60.008;30.404;2024-01-10T07:06:10;101330.81;;;-0.44;69.24
80837;BME280;70251;60.008;30.404;2024-01-10T07:08:40;101309.84;;;-0.43;68.93
80837;BME280;70251;60.008;30.404;2024-01-10T07:11:08;101308.03;;;-0.42;68.90
80837;BME280;70251;60.008;30.404;2024-01-10T07:13:34;101311.69;;;-0.46;68.71
80837;BME280;70251;60.008;30.404;2024-01-10T07:16:00;101322.31;;;-0.51;69.26
80837;BME280;70251;60.008;30.404;2024-01-10T07:18:29;101316.22;;;-0.51;68.66
80837;BME280;70251;60.008;30.404;2024-01-10T07:20:55;101308.25;;;-0.48;69.28
80837;BME280;70251;60.008;30.404;2024-01-10T07:23:20;101316.03;;;-0.45;68.72
80837;BME280;70251;60.008;30.404;2024-01-10T07:25:46;101312.47;;;-0.44;68.74
80837;BME280;70251;60.008;30.404;2024-01-10T07:28:11;101317.50;;;-0.38;68.76
80837;BME280;70251;60.008;30.404;2024-01-10T07:30:37;101313.91;;;-0.34;68.30
80837;BME280;70251;60.008;30.404;2024-01-10T07:33:03;101323.38;;;-0.30;68.97
80837;BME280;70251;60.008;30.404;2024-01-10T07:35:28;101312.78;;;-0.27;68.26
80837;BME280;70251;60.008;30.404;2024-01-10T07:37:55;101313.56;;;-0.25;68.36
80837;BME280;70251;60.008;30.404;2024-01-10T07:40:21;101313.06;;;-0.35;68.74
80837;BME280;70251;60.008;30.404;2024-01-10T07:42:48;101302.81;;;-0.42;68.95
80837;BME280;70251;60.008;30.404;2024-01-10T07:45:13;101303.72;;;-0.43;68.58
80837;BME280;70251;60.008;30.404;2024-01-10T07:47:39;101300.97;;;-0.39;68.37
80837;BME280;70251;60.008;30.404;2024-01-10T07:50:09;101293.78;;;-0.34;68.63
80837;BME280;70251;60.008;30.404;2024-01-10T07:52:35;101292.09;;;-0.35;68.58
80837;BME280;70251;60.008;30.404;2024-01-10T07:55:02;101285.22;;;-0.39;67.99
80837;BME280;70251;60.008;30.404;2024-01-10T07:57:30;101277.91;;;-0.55;67.79
80837;BME280;70251;60.008;30.404;2024-01-10T07:59:56;101279.72;;;-0.57;68.27
80837;BME280;70251;60.008;30.404;2024-01-10T08:02:22;101273.44;;;-0.52;68.12
80837;BME280;70251;60.008;30.404;2024-01-10T08:04:48;101274.31;;;-0.51;68.24
80837;BME280;70251;60.008;30.404;2024-01-10T08:07:14;101281.25;;;-0.50;68.64
80837;BME280;70251;60.008;30.404;2024-01-10T08:09:39;101275.78;;;-0.44;68.64
80837;BME280;70251;60.008;30.404;2024-01-10T08:12:06;101260.94;;;-0.44;67.79
80837;BME280;70251;60.008;30.404;2024-01-10T08:14:32;101262.97;;;-0.52;67.72
80837;BME280;70251;60.008;30.404;2024-01-10T08:16:58;101263.06;;;-0.55;68.57
80837;BME280;70251;60.008;30.404;2024-01-10T08:19:24;101263.84;;;-0.51;68.56
80837;BME280;70251;60.008;30.404;2024-01-10T08:21:52;101263.66;;;-0.47;69.06
80837;BME280;70251;60.008;30.404;2024-01-10T08:24:19;101251.31;;;-0.43;68.55
80837;BME280;70251;60.008;30.404;2024-01-10T08:26:44;101247.91;;;-0.45;68.27
80837;BME280;70251;60.008;30.404;2024-01-10T08:29:10;101240.25;;;-0.51;68.05
80837;BME280;70251;60.008;30.404;2024-01-10T08:31:36;101235.53;;;-0.66;68.18
80837;BME280;70251;60.008;30.404;2024-01-10T08:34:01;101226.38;;;-0.80;68.16
80837;BME280;70251;60.008;30.404;2024-01-10T08:36:28;101221.22;;;-0.83;68.33
80837;BME280;70251;60.008;30.404;2024-01-10T08:38:53;101227.81;;;-0.71;68.33
80837;BME280;70251;60.008;30.404;2024-01-10T08:41:19;101229.38;;;-0.65;68.39
80837;BME280;70251;60.008;30.404;2024-01-10T08:43:46;101220.41;;;-0.58;68.38
80837;BME280;70251;60.008;30.404;2024-01-10T08:46:12;101219.31;;;-0.53;67.90
80837;BME280;70251;60.008;30.404;2024-01-10T08:48:37;101212.41;;;-0.55;67.91
80837;BME280;70251;60.008;30.404;2024-01-10T08:51:03;101201.25;;;-0.60;67.62
80837;BME280;70251;60.008;30.404;2024-01-10T08:53:29;101200.34;;;-0.59;68.32
80837;BME280;70251;60.008;30.404;2024-01-10T08:55:54;101193.19;;;-0.54;68.38
80837;BME280;70251;60.008;30.404;2024-01-10T08:58:20;101172.94;;;-0.49;67.94
80837;BME280;70251;60.008;30.404;2024-01-10T09:00:46;101167.53;;;-0.45;68.50
80837;BME280;70251;60.008;30.404;2024-01-10T09:03:12;101170.75;;;-0.38;68.04
80837;BME280;70251;60.008;30.404;2024-01-10T09:05:38;101165.13;;;-0.28;67.92
80837;BME280;70251;60.008;30.404;2024-01-10T09:08:03;101163.16;;;-0.21;68.15
80837;BME280;70251;60.008;30.404;2024-01-10T09:10:29;101161.44;;;-0.22;67.98
80837;BME280;70251;60.008;30.404;2024-01-10T09:12:55;101163.94;;;-0.19;68.50
80837;BME280;70251;60.008;30.404;2024-01-10T09:15:21;101161.16;;;-0.15;68.11
80837;BME280;70251;60.008;30.404;2024-01-10T09:17:46;101158.59;;;-0.16;67.64
80837;BME280;70251;60.008;30.404;2024-01-10T09:20:12;101145.72;;;-0.22;68.05
80837;BME280;70251;60.008;30.404;2024-01-10T09:22:39;101131.66;;;-0.20;67.78
80837;BME280;70251;60.008;30.404;2024-01-10T09:25:05;101116.91;;;-0.22;67.16
80837;BME280;70251;60.008;30.404;2024-01-10T09:27:32;101111.81;;;-0.27;67.76
80837;BME280;70251;60.008;30.404;2024-01-10T09:30:02;101109.13;;;-0.25;67.89
80837;BME280;70251;60.008;30.404;2024-01-10T09:32:31;101091.47;;;-0.20;68.10
80837;BME280;70251;60.008;30.404;2024-01-10T09:34:57;101083.72;;;-0.23;67.43
80837;BME280;70251;60.008;30.404;2024-01-10T09:37:23;101090.00;;;-0.27;67.46
80837;BME280;70251;60.008;30.404;2024-01-10T09:39:49;101103.84;;;-0.24;68.16
80837;BME280;70251;60.008;30.404;2024-01-10T09:42:15;101095.84;;;-0.21;67.75
80837;BME280;70251;60.008;30.404;2024-01-10T09:44:41;101093.06;;;-0.16;68.39
80837;BME280;70251;60.008;30.404;2024-01-10T09:47:07;101076.47;;;-0.17;67.90
80837;BME280;70251;60.008;30.404;2024-01-10T09:49:34;101075.56;;;-0.16;67.53
80837;BME280;70251;60.008;30.404;2024-01-10T09:52:04;101078.81;;;-0.09;68.27
80837;BME280;70251;60.008;30.404;2024-01-10T09:54:30;101082.09;;;-0.04;67.97
80837;BME280;70251;60.008;30.404;2024-01-10T09:57:00;101067.06;;;0.01;67.69
80837;BME280;70251;60.008;30.404;2024-01-10T09:59:25;101041.38;;;0.09;68.05
80837;BME280;70251;60.008;30.404;2024-01-10T10:01:56;101035.78;;;0.18;67.51
80837;BME280;70251;60.008;30.404;2024-01-10T10:04:23;101018.13;;;0.22;67.39
80837;BME280;70251;60.008;30.404;2024-01-10T10:07:01;100996.09;;;0.26;67.52
80837;BME280;70251;60.008;30.404;2024-01-10T10:09:28;100998.50;;;0.32;66.93
80837;BME280;70251;60.008;30.404;2024-01-10T10:11:55;100993.56;;;0.24;67.01
80837;BME280;70251;60.008;30.404;2024-01-10T10:14:23;100982.72;;;0.12;66.87
80837;BME280;70251;60.008;30.404;2024-01-10T10:16:51;100996.88;;;0.08;67.89
80837;BME280;70251;60.008;30.404;2024-01-10T10:19:26;101004.66;;;0.09;67.63
80837;BME280;70251;60.008;30.404;2024-01-10T10:21:52;101001.00;;;0.13;67.38
80837;BME280;70251;60.008;30.404;2024-01-10T10:24:17;100982.34;;;0.21;67.43
80837;BME280;70251;60.008;30.404;2024-01-10T10:26:43;100974.41;;;0.22;68.01
80837;BME280;70251;60.008;30.404;2024-01-10T10:29:09;100968.56;;;0.16;67.12
80837;BME280;70251;60.008;30.404;2024-01-10T10:31:35;100954.31;;;0.01;67.71
80837;BME280;70251;60.008;30.404;2024-01-10T10:34:01;100945.75;;;-0.04;67.99
80837;BME280;70251;60.008;30.404;2024-01-10T10:36:30;100925.19;;;-0.13;67.53
80837;BME280;70251;60.008;30.404;2024-01-10T10:38:59;100935.91;;;-0.19;67.88
80837;BME280;70251;60.008;30.404;2024-01-10T10:41:30;100930.47;;;-0.15;68.06
80837;BME280;70251;60.008;30.404;2024-01-10T10:43:56;100920.91;;;-0.16;67.75
80837;BME280;70251;60.008;30.404;2024-01-10T10:46:23;100904.41;;;-0.18;68.39
80837;BME280;70251;60.008;30.404;2024-01-10T10:48:52;100883.25;;;-0.13;67.88
80837;BME280;70251;60.008;30.404;2024-01-10T10:51:32;100887.25;;;-0.05;68.49
80837;BME280;70251;60.008;30.404;2024-01-10T10:53:59;100875.31;;;-0.12;68.03
80837;BME280;70251;60.008;30.404;2024-01-10T10:56:31;100866.91;;;0.00;68.45
80837;BME280;70251;60.008;30.404;2024-01-10T10:59:00;100863.59;;;-0.03;68.10
80837;BME280;70251;60.008;30.404;2024-01-10T11:01:27;100865.09;;;0.03;68.57
80837;BME280;70251;60.008;30.404;2024-01-10T11:03:58;100852.97;;;0.00;67.92
80837;BME280;70251;60.008;30.404;2024-01-10T11:06:24;100859.25;;;-0.04;68.20
80837;BME280;70251;60.008;30.404;2024-01-10T11:09:04;100857.81;;;-0.11;68.57
80837;BME280;70251;60.008;30.404;2024-01-10T11:12:34;100855.59;;;0.00;68.49
80837;BME280;70251;60.008;30.404;2024-01-10T11:14:29;100850.00;;;0.08;69.10
80837;BME280;70251;60.008;30.404;2024-01-10T11:20:56;100824.50;;;0.11;68.50
80837;BME280;70251;60.008;30.404;2024-01-10T11:23:28;100814.41;;;0.22;68.43
80837;BME280;70251;60.008;30.404;2024-01-10T11:25:58;100800.63;;;0.17;69.06
80837;BME280;70251;60.008;30.404;2024-01-10T11:28:30;100783.22;;;0.16;69.10
80837;BME280;70251;60.008;30.404;2024-01-10T11:30:56;100767.38;;;0.18;69.07
80837;BME280;70251;60.008;30.404;2024-01-10T11:36:12;100771.78;;;0.17;69.52
80837;BME280;70251;60.008;30.404;2024-01-10T11:38:48;100758.66;;;0.17;70.43
80837;BME280;70251;60.008;30.404;2024-01-10T11:46:46;100727.44;;;0.31;69.69
80837;BME280;70251;60.008;30.404;2024-01-10T11:49:14;100712.97;;;0.41;69.31
80837;BME280;70251;60.008;30.404;2024-01-10T11:51:53;100710.25;;;0.43;70.24
80837;BME280;70251;60.008;30.404;2024-01-10T11:54:42;100711.28;;;0.40;71.72
80837;BME280;70251;60.008;30.404;2024-01-10T11:59:34;100674.97;;;0.50;69.96
80837;BME280;70251;60.008;30.404;2024-01-10T12:02:01;100665.16;;;0.53;70.18
80837;BME280;70251;60.008;30.404;2024-01-10T12:04:31;100657.16;;;0.56;70.49
80837;BME280;70251;60.008;30.404;2024-01-10T12:06:57;100650.91;;;0.59;70.57
80837;BME280;70251;60.008;30.404;2024-01-10T12:09:23;100662.00;;;0.64;71.09
80837;BME280;70251;60.008;30.404;2024-01-10T12:11:50;100646.06;;;0.68;71.04
80837;BME280;70251;60.008;30.404;2024-01-10T12:14:16;100634.34;;;0.75;70.94
80837;BME280;70251;60.008;30.404;2024-01-10T12:16:42;100621.69;;;0.84;70.69
80837;BME280;70251;60.008;30.404;2024-01-10T12:19:08;100598.69;;;0.89;70.96
80837;BME280;70251;60.008;30.404;2024-01-10T12:21:33;100596.69;;;0.94;71.12
80837;BME280;70251;60.008;30.404;2024-01-10T12:23:59;100592.44;;;0.91;71.44
80837;BME280;70251;60.008;30.404;2024-01-10T12:26:25;100585.16;;;0.96;71.37
80837;BME280;70251;60.008;30.404;2024-01-10T12:28:58;100575.81;;;1.08;71.36
80837;BME280;70251;60.008;30.404;2024-01-10T12:31:26;100568.03;;;1.06;71.60
80837;BME280;70251;60.008;30.404;2024-01-10T12:33:55;100561.59;;;1.12;71.79
80837;BME280;70251;60.008;30.404;2024-01-10T12:36:20;100555.09;;;1.19;71.84
80837;BME280;70251;60.008;30.404;2024-01-10T12:38:47;100542.72;;;1.21;71.93
80837;BME280;70251;60.008;30.404;2024-01-10T12:41:15;100536.16;;;1.29;71.68
80837;BME280;70251;60.008;30.404;2024-01-10T12:43:41;100523.59;;;1.34;71.74
80837;BME280;70251;60.008;30.404;2024-01-10T12:46:07;100502.44;;;1.37;72.83
80837;BME280;70251;60.008;30.404;2024-01-10T12:48:38;100511.75;;;1.43;72.62
80837;BME280;70251;60.008;30.404;2024-01-10T12:51:07;100501.75;;;1.49;72.88
80837;BME280;70251;60.008;30.404;2024-01-10T12:56:04;100483.31;;;1.51;72.94
80837;BME280;70251;60.008;30.404;2024-01-10T12:58:32;100476.19;;;1.53;73.42
80837;BME280;70251;60.008;30.404;2024-01-10T13:00:58;100464.72;;;1.54;73.79